sensor_id;sensor_type;location;lat;lon;timestamp;pressure;altitude;pressure_sealevel;temperature;humidity
21273;BME280;36726;52.328;10.552;2023-01-13T00:01:14;99322.16;;;9.80;100.00
21273;BME280;36726;52.328;10.552;2023-01-13T00:03:42;99309.84;;;9.82;100.00
21273;BME280;36726;52.328;10.552;2023-01-13T00:06:14;99314.25;;;9.85;100.00
21273;BME280;36726;52.328;10.552;2023-01-13T00:08:41;99307.19;;;9.87;100.00
21273;BME280;36726;52.328;10.552;2023-01-13T00:11:09;99309.81;;;9.90;100.00
21273;BME280;36726;52.328;10.552;2023-01-13T00:13:36;99301.88;;;9.91;100.00
21273;BME280;36726;52.328;10.552;2023-01-13T00:16:06;99315.09;;;9.93;100.00
21273;BME280;36726;52.328;10.552;2023-01-13T00:18:33;99311.53;;;9.95;100.00
21273;BME280;36726;52.328;10.552;2023-01-13T00:21:06;99314.19;;;9.97;100.00
21273;BME280;36726;52.328;10.552;2023-01-13T00:23:33;99303.59;;;9.97;100.00
21273;BME280;36726;52.328;10.552;2023-01-13T00:26:03;99300.97;;;9.95;100.00
21273;BME280;36726;52.328;10.552;2023-01-13T00:28:31;99300.97;;;9.95;100.00
21273;BME280;36726;52.328;10.552;2023-01-13T00:31:16;99291.31;;;9.96;100.00
21273;BME280;36726;52.328;10.552;2023-01-13T00:33:43;99298.38;;;9.91;100.00
21273;BME280;36726;52.328;10.552;2023-01-13T00:36:12;99296.63;;;9.87;100.00
21273;BME280;36726;52.328;10.552;2023-01-13T00:38:39;99286.09;;;9.84;100.00
21273;BME280;36726;52.328;10.552;2023-01-13T00:41:10;99281.72;;;9.75;100.00
21273;BME280;36726;52.328;10.552;2023-01-13T00:43:37;99284.41;;;9.65;100.00
21273;BME280;36726;52.328;10.552;2023-01-13T00:46:06;99288.81;;;9.60;100.00
21273;BME280;36726;52.328;10.552;2023-01-13T00:48:34;99286.16;;;9.64;100.00
21273;BME280;36726;52.328;10.552;2023-01-13T00:51:07;99287.91;;;9.71;100.00
21273;BME280;36726;52.328;10.552;2023-01-13T00:53:37;99281.72;;;9.75;100.00
21273;BME280;36726;52.328;10.552;2023-01-13T00:56:07;99279.91;;;9.80;100.00
21273;BME280;36726;52.328;10.552;2023-01-13T00:58:35;99283.44;;;9.85;100.00
21273;BME280;36726;52.328;10.552;2023-01-13T01:01:04;99280.78;;;9.87;100.00
21273;BME280;36726;52.328;10.552;2023-01-13T01:03:31;99279.03;;;9.89;100.00
21273;BME280;36726;52.328;10.552;2023-01-13T01:06:25;99277.25;;;9.92;100.00
21273;BME280;36726;52.328;10.552;2023-01-13T01:08:54;99278.13;;;9.94;100.00
21273;BME280;36726;52.328;10.552;2023-01-13T01:11:24;99276.34;;;9.96;100.00
21273;BME280;36726;52.328;10.552;2023-01-13T01:13:53;99261.34;;;9.98;100.00
21273;BME280;36726;52.328;10.552;2023-01-13T01:16:22;99254.28;;;9.99;100.00
21273;BME280;36726;52.328;10.552;2023-01-13T01:18:51;99257.84;;;9.98;100.00
21273;BME280;36726;52.328;10.552;2023-01-13T01:21:20;99260.50;;;9.96;100.00
21273;BME280;36726;52.328;10.552;2023-01-13T01:23:47;99264.88;;;9.96;100.00
21273;BME280;36726;52.328;10.552;2023-01-13T01:26:19;99264.88;;;9.96;100.00
21273;BME280;36726;52.328;10.552;2023-01-13T01:28:46;99257.84;;;9.98;100.00
21273;BME280;36726;52.328;10.552;2023-01-13T01:31:18;99260.47;;;9.98;100.00
21273;BME280;36726;52.328;10.552;2023-01-13T01:33:45;99251.66;;;9.97;100.00
21273;BME280;36726;52.328;10.552;2023-01-13T01:36:14;99252.56;;;9.98;100.00
21273;BME280;36726;52.328;10.552;2023-01-13T01:38:41;99252.53;;;9.99;100.00
21273;BME280;36726;52.328;10.552;2023-01-13T01:41:15;99259.59;;;10.02;100.00
21273;BME280;36726;52.328;10.552;2023-01-13T01:46:40;99251.66;;;10.03;100.00
21273;BME280;36726;52.328;10.552;2023-01-13T01:49:40;99249.03;;;10.02;100.00
21273;BME280;36726;52.328;10.552;2023-01-13T01:55:03;99256.03;;;10.03;100.00
21273;BME280;36726;52.328;10.552;2023-01-13T01:57:36;99252.50;;;10.04;100.00
21273;BME280;36726;52.328;10.552;2023-01-13T02:00:06;99255.16;;;10.05;100.00
21273;BME280;36726;52.328;10.552;2023-01-13T02:02:41;99250.72;;;10.06;100.00
21273;BME280;36726;52.328;10.552;2023-01-13T02:05:09;99256.00;;;10.06;100.00
21273;BME280;36726;52.328;10.552;2023-01-13T02:07:38;99245.44;;;10.06;100.00
21273;BME280;36726;52.328;10.552;2023-01-13T02:10:07;99237.56;;;10.03;100.00
21273;BME280;36726;52.328;10.552;2023-01-13T02:12:35;99240.22;;;10.00;100.00
21273;BME280;36726;52.328;10.552;2023-01-13T02:15:06;99237.59;;;9.95;100.00
21273;BME280;36726;52.328;10.552;2023-01-13T02:26:32;99238.50;;;9.93;100.00
21273;BME280;36726;52.328;10.552;2023-01-13T02:29:29;99252.56;;;9.93;100.00
21273;BME280;36726;52.328;10.552;2023-01-13T02:32:38;99230.56;;;9.96;100.00
21273;BME280;36726;52.328;10.552;2023-01-13T02:35:12;99251.69;;;9.94;100.00
21273;BME280;36726;52.328;10.552;2023-01-13T02:37:42;99258.75;;;9.92;100.00
21273;BME280;36726;52.328;10.552;2023-01-13T02:42:57;99252.56;;;9.95;100.00
21273;BME280;36726;52.328;10.552;2023-01-13T02:45:52;99246.41;;;9.94;100.00
21273;BME280;36726;52.328;10.552;2023-01-13T02:48:22;99254.31;;;9.96;99.80
21273;BME280;36726;52.328;10.552;2023-01-13T02:50:58;99261.34;;;10.01;97.60
21273;BME280;36726;52.328;10.552;2023-01-13T02:53:32;99264.88;;;10.02;97.28
21273;BME280;36726;52.328;10.552;2023-01-13T02:56:03;99256.03;;;10.03;97.74
21273;BME280;36726;52.328;10.552;2023-01-13T02:58:33;99251.63;;;10.06;97.54
21273;BME280;36726;52.328;10.552;2023-01-13T03:01:02;99256.06;;;10.09;95.37
21273;BME280;36726;52.328;10.552;2023-01-13T03:03:30;99257.75;;;10.13;95.77
21273;BME280;36726;52.328;10.552;2023-01-13T03:09:05;99255.13;;;10.13;96.11
21273;BME280;36726;52.328;10.552;2023-01-13T03:11:42;99245.41;;;10.15;95.81
21273;BME280;36726;52.328;10.552;2023-01-13T03:14:22;99252.47;;;10.16;94.31
21273;BME280;36726;52.328;10.552;2023-01-13T03:19:31;99253.34;;;10.19;95.71
21273;BME280;36726;52.328;10.552;2023-01-13T03:24:55;99267.44;;;10.20;96.05
21273;BME280;36726;52.328;10.552;2023-01-13T03:30:31;99277.13;;;10.18;98.09
21273;BME280;36726;52.328;10.552;2023-01-13T03:33:04;99274.47;;;10.16;98.75
21273;BME280;36726;52.328;10.552;2023-01-13T03:35:44;99283.28;;;10.15;99.67
21273;BME280;36726;52.328;10.552;2023-01-13T03:38:14;99272.75;;;10.12;100.00
21273;BME280;36726;52.328;10.552;2023-01-13T03:40:48;99264.81;;;10.08;100.00
21273;BME280;36726;52.328;10.552;2023-01-13T03:43:21;99282.47;;;10.03;100.00
21273;BME280;36726;52.328;10.552;2023-01-13T03:46:16;99269.28;;;9.97;100.00
21273;BME280;36726;52.328;10.552;2023-01-13T03:48:45;99275.50;;;9.93;100.00
21273;BME280;36726;52.328;10.552;2023-01-13T03:51:14;99276.41;;;9.87;100.00
21273;BME280;36726;52.328;10.552;2023-01-13T03:53:47;99272.88;;;9.81;100.00
21273;BME280;36726;52.328;10.552;2023-01-13T03:58:48;99266.78;;;9.70;100.00
21273;BME280;36726;52.328;10.552;2023-01-13T04:01:27;99284.41;;;9.65;100.00
21273;BME280;36726;52.328;10.552;2023-01-13T04:04:02;99293.22;;;9.65;100.00
21273;BME280;36726;52.328;10.552;2023-01-13T04:09:13;99279.13;;;9.63;100.00
21273;BME280;36726;52.328;10.552;2023-01-13T04:11:48;99236.88;;;9.65;100.00
21273;BME280;36726;52.328;10.552;2023-01-13T04:14:18;99266.78;;;9.67;100.00
21273;BME280;36726;52.328;10.552;2023-01-13T04:16:47;99280.00;;;9.67;100.00
21273;BME280;36726;52.328;10.552;2023-01-13T04:19:14;99280.91;;;9.66;100.00
21273;BME280;36726;52.328;10.552;2023-01-13T04:21:40;99272.97;;;9.63;100.00
21273;BME280;36726;52.328;10.552;2023-01-13T04:24:07;99287.94;;;9.64;100.00
21273;BME280;36726;52.328;10.552;2023-01-13T04:26:34;99277.38;;;9.64;100.00
21273;BME280;36726;52.328;10.552;2023-01-13T04:29:01;99278.25;;;9.63;100.00
21273;BME280;36726;52.328;10.552;2023-01-13T04:31:28;99270.34;;;9.60;100.00
21273;BME280;36726;52.328;10.552;2023-01-13T04:33:54;99265.13;;;9.49;100.00
21273;BME280;36726;52.328;10.552;2023-01-13T04:36:21;99258.97;;;9.41;100.00
21273;BME280;36726;52.328;10.552;2023-01-13T04:38:53;99259.88;;;9.35;100.00
21273;BME280;36726;52.328;10.552;2023-01-13T04:41:20;99258.13;;;9.28;100.00
21273;BME280;36726;52.328;10.552;2023-01-13T04:43:46;99259.03;;;9.24;100.00
21273;BME280;36726;52.328;10.552;2023-01-13T04:46:13;99264.28;;;9.30;100.00
21273;BME280;36726;52.328;10.552;2023-01-13T04:48:40;99264.25;;;9.39;98.77
21273;BME280;36726;52.328;10.552;2023-01-13T04:51:06;99267.75;;;9.44;97.77
21273;BME280;36726;52.328;10.552;2023-01-13T04:53:33;99272.16;;;9.46;95.90
21273;BME280;36726;52.328;10.552;2023-01-13T04:55:59;99272.16;;;9.49;96.25
21273;BME280;36726;52.328;10.552;2023-01-13T04:58:26;99267.75;;;9.48;96.09
21273;BME280;36726;52.328;10.552;2023-01-13T05:00:52;99269.50;;;9.49;95.12
21273;BME280;36726;52.328;10.552;2023-01-13T05:03:20;99262.47;;;9.51;94.93
21273;BME280;36726;52.328;10.552;2023-01-13T05:05:50;99280.06;;;9.50;94.87
21273;BME280;36726;52.328;10.552;2023-01-13T05:08:16;99280.09;;;9.44;94.10
21273;BME280;36726;52.328;10.552;2023-01-13T05:10:43;99286.25;;;9.35;94.00
21273;BME280;36726;52.328;10.552;2023-01-13T05:13:10;99281.00;;;9.26;94.65
21273;BME280;36726;52.328;10.552;2023-01-13T05:15:55;99295.09;;;9.21;94.15
21273;BME280;36726;52.328;10.552;2023-01-13T05:18:40;99295.97;;;9.14;95.28
21273;BME280;36726;52.328;10.552;2023-01-13T05:21:06;99301.28;;;9.09;94.49
21273;BME280;36726;52.328;10.552;2023-01-13T05:23:53;99287.22;;;9.06;95.14
21273;BME280;36726;52.328;10.552;2023-01-13T05:26:38;99282.81;;;9.02;95.40
21273;BME280;36726;52.328;10.552;2023-01-13T05:29:05;99300.41;;;9.03;96.97
21273;BME280;36726;52.328;10.552;2023-01-13T05:31:31;99297.75;;;9.09;96.88
21273;BME280;36726;52.328;10.552;2023-01-13T05:33:58;99306.56;;;9.17;97.13
21273;BME280;36726;52.328;10.552;2023-01-13T05:36:24;99309.16;;;9.24;97.43
21273;BME280;36726;52.328;10.552;2023-01-13T05:38:51;99301.25;;;9.23;97.91
21273;BME280;36726;52.328;10.552;2023-01-13T05:41:17;99308.28;;;9.19;97.52
21273;BME280;36726;52.328;10.552;2023-01-13T05:44:03;99302.16;;;9.08;98.34
21273;BME280;36726;52.328;10.552;2023-01-13T05:46:29;99302.16;;;8.99;98.49
21273;BME280;36726;52.328;10.552;2023-01-13T05:48:56;99290.75;;;8.91;98.00
21273;BME280;36726;52.328;10.552;2023-01-13T05:51:24;99300.44;;;8.86;97.26
21273;BME280;36726;52.328;10.552;2023-01-13T05:53:51;99304.81;;;8.80;98.09
21273;BME280;36726;52.328;10.552;2023-01-13T05:56:18;99300.44;;;8.71;97.43
21273;BME280;36726;52.328;10.552;2023-01-13T05:58:44;99299.53;;;8.69;96.80
21273;BME280;36726;52.328;10.552;2023-01-13T06:01:11;99302.19;;;8.66;96.25
21273;BME280;36726;52.328;10.552;2023-01-13T06:03:38;99295.16;;;8.62;95.23
21273;BME280;36726;52.328;10.552;2023-01-13T06:06:04;99292.53;;;8.61;94.86
21273;BME280;36726;52.328;10.552;2023-01-13T06:08:34;99292.50;;;8.56;94.48
21273;BME280;36726;52.328;10.552;2023-01-13T06:11:02;99295.16;;;8.53;94.05
21273;BME280;36726;52.328;10.552;2023-01-13T06:13:29;99293.38;;;8.48;94.15
21273;BME280;36726;52.328;10.552;2023-01-13T06:15:57;99293.38;;;8.43;94.32
21273;BME280;36726;52.328;10.552;2023-01-13T06:18:25;99294.25;;;8.36;94.47
21273;BME280;36726;52.328;10.552;2023-01-13T06:20:52;99301.28;;;8.31;94.89
21273;BME280;36726;52.328;10.552;2023-01-13T06:23:19;99305.63;;;8.23;94.81
21273;BME280;36726;52.328;10.552;2023-01-13T06:26:11;99295.97;;;8.16;95.70
21273;BME280;36726;52.328;10.552;2023-01-13T06:28:43;99288.91;;;8.07;96.03
21273;BME280;36726;52.328;10.552;2023-01-13T06:31:10;99288.03;;;7.98;96.58
21273;BME280;36726;52.328;10.552;2023-01-13T06:33:41;99291.50;;;7.92;96.79
21273;BME280;36726;52.328;10.552;2023-01-13T06:36:12;99286.22;;;7.85;97.24
21273;BME280;36726;52.328;10.552;2023-01-13T06:38:43;99284.44;;;7.81;97.61
21273;BME280;36726;52.328;10.552;2023-01-13T06:41:11;99284.44;;;7.78;98.13
21273;BME280;36726;52.328;10.552;2023-01-13T06:43:38;99278.28;;;7.76;98.26
21273;BME280;36726;52.328;10.552;2023-01-13T06:46:05;99291.44;;;7.77;98.24
21273;BME280;36726;52.328;10.552;2023-01-13T06:48:33;99286.19;;;7.74;98.24
21273;BME280;36726;52.328;10.552;2023-01-13T06:51:01;99287.94;;;7.74;98.48
21273;BME280;36726;52.328;10.552;2023-01-13T06:53:28;99297.56;;;7.75;98.12
21273;BME280;36726;52.328;10.552;2023-01-13T06:55:54;99304.63;;;7.77;97.58
21273;BME280;36726;52.328;10.552;2023-01-13T06:58:21;99306.34;;;7.77;97.75
21273;BME280;36726;52.328;10.552;2023-01-13T07:00:48;99309.88;;;7.76;97.38
21273;BME280;36726;52.328;10.552;2023-01-13T07:03:17;99305.47;;;7.72;97.04
21273;BME280;36726;52.328;10.552;2023-01-13T07:05:51;99307.22;;;7.73;97.07
21273;BME280;36726;52.328;10.552;2023-01-13T07:08:18;99308.09;;;7.75;96.66
21273;BME280;36726;52.328;10.552;2023-01-13T07:10:45;99309.88;;;7.74;96.67
21273;BME280;36726;52.328;10.552;2023-01-13T07:13:11;99310.72;;;7.75;96.23
21273;BME280;36726;52.328;10.552;2023-01-13T07:16:01;99304.63;;;7.77;95.20
21273;BME280;36726;52.328;10.552;2023-01-13T07:25:41;99309.81;;;7.62;95.15
21273;BME280;36726;52.328;10.552;2023-01-13T07:28:08;99308.91;;;7.59;95.25
21273;BME280;36726;52.328;10.552;2023-01-13T07:30:34;99305.38;;;7.55;95.13
21273;BME280;36726;52.328;10.552;2023-01-13T07:33:01;99308.03;;;7.55;95.14
21273;BME280;36726;52.328;10.552;2023-01-13T07:35:27;99314.16;;;7.59;94.92
21273;BME280;36726;52.328;10.552;2023-01-13T07:37:56;99313.31;;;7.64;95.24
21273;BME280;36726;52.328;10.552;2023-01-13T07:40:22;99307.22;;;7.67;95.42
21273;BME280;36726;52.328;10.552;2023-01-13T07:42:49;99306.31;;;7.62;94.80
21273;BME280;36726;52.328;10.552;2023-01-13T07:45:34;99297.53;;;7.60;94.97
21273;BME280;36726;52.328;10.552;2023-01-13T07:48:00;99307.16;;;7.61;94.15
21273;BME280;36726;52.328;10.552;2023-01-13T07:50:27;99301.06;;;7.63;93.70
21273;BME280;36726;52.328;10.552;2023-01-13T07:52:57;99298.41;;;7.63;93.34
21273;BME280;36726;52.328;10.552;2023-01-13T07:55:24;99301.91;;;7.64;93.34
21273;BME280;36726;52.328;10.552;2023-01-13T07:57:50;99306.31;;;7.63;93.29
21273;BME280;36726;52.328;10.552;2023-01-13T08:00:17;99310.69;;;7.66;93.11
21273;BME280;36726;52.328;10.552;2023-01-13T08:02:44;99313.38;;;7.73;91.98
21273;BME280;36726;52.328;10.552;2023-01-13T08:05:11;99310.75;;;7.78;91.99
21273;BME280;36726;52.328;10.552;2023-01-13T08:07:37;99314.25;;;7.78;91.65
21273;BME280;36726;52.328;10.552;2023-01-13T08:10:06;99320.41;;;7.80;91.61
21273;BME280;36726;52.328;10.552;2023-01-13T08:12:32;99324.78;;;7.75;91.58
21273;BME280;36726;52.328;10.552;2023-01-13T08:15:22;99310.72;;;7.75;91.11
21273;BME280;36726;52.328;10.552;2023-01-13T08:17:49;99308.09;;;7.76;91.34
21273;BME280;36726;52.328;10.552;2023-01-13T08:20:16;99305.47;;;7.75;91.59
21273;BME280;36726;52.328;10.552;2023-01-13T08:22:42;99308.13;;;7.78;90.79
21273;BME280;36726;52.328;10.552;2023-01-13T08:25:09;99312.50;;;7.82;90.52
21273;BME280;36726;52.328;10.552;2023-01-13T08:27:36;99326.59;;;7.87;89.84
21273;BME280;36726;52.328;10.552;2023-01-13T08:30:03;99326.63;;;7.99;90.08
21273;BME280;36726;52.328;10.552;2023-01-13T08:32:30;99336.28;;;8.09;90.37
21273;BME280;36726;52.328;10.552;2023-01-13T08:34:57;99340.72;;;8.17;89.51
21273;BME280;36726;52.328;10.552;2023-01-13T08:37:24;99338.16;;;8.28;89.13
21273;BME280;36726;52.328;10.552;2023-01-13T08:39:50;99349.56;;;8.34;88.29
21273;BME280;36726;52.328;10.552;2023-01-13T08:42:17;99347.84;;;8.41;88.72
21273;BME280;36726;52.328;10.552;2023-01-13T08:44:43;99353.09;;;8.46;88.60
21273;BME280;36726;52.328;10.552;2023-01-13T08:47:10;99354.00;;;8.51;88.58
21273;BME280;36726;52.328;10.552;2023-01-13T08:49:36;99352.25;;;8.54;88.31
21273;BME280;36726;52.328;10.552;2023-01-13T08:52:03;99359.28;;;8.60;88.27
21273;BME280;36726;52.328;10.552;2023-01-13T08:54:30;99354.03;;;8.63;86.92
21273;BME280;36726;52.328;10.552;2023-01-13T08:56:56;99367.19;;;8.66;87.11
21273;BME280;36726;52.328;10.552;2023-01-13T08:59:23;99364.56;;;8.73;87.31
21273;BME280;36726;52.328;10.552;2023-01-13T09:01:50;99348.75;;;8.78;86.89
21273;BME280;36726;52.328;10.552;2023-01-13T09:04:19;99349.66;;;8.84;86.97
21273;BME280;36726;52.328;10.552;2023-01-13T09:06:48;99347.88;;;8.89;86.90
21273;BME280;36726;52.328;10.552;2023-01-13T09:09:14;99341.72;;;8.89;85.39
21273;BME280;36726;52.328;10.552;2023-01-13T09:11:42;99349.63;;;8.96;86.03
21273;BME280;36726;52.328;10.552;2023-01-13T09:14:31;99347.88;;;9.01;83.72
21273;BME280;36726;52.328;10.552;2023-01-13T09:16:58;99346.09;;;9.06;84.65
21273;BME280;36726;52.328;10.552;2023-01-13T09:19:26;99358.44;;;9.07;83.84
21273;BME280;36726;52.328;10.552;2023-01-13T09:21:53;99347.88;;;9.01;82.63
21273;BME280;36726;52.328;10.552;2023-01-13T09:24:22;99356.66;;;8.94;82.07
21273;BME280;36726;52.328;10.552;2023-01-13T09:26:49;99358.44;;;8.98;83.06
21273;BME280;36726;52.328;10.552;2023-01-13T09:29:16;99357.56;;;9.11;82.76
21273;BME280;36726;52.328;10.552;2023-01-13T09:31:43;99353.13;;;9.19;83.13
21273;BME280;36726;52.328;10.552;2023-01-13T09:34:16;99354.00;;;9.32;82.63
21273;BME280;36726;52.328;10.552;2023-01-13T09:37:03;99362.78;;;9.35;80.49
21273;BME280;36726;52.328;10.552;2023-01-13T09:39:31;99359.25;;;9.39;81.83
21273;BME280;36726;52.328;10.552;2023-01-13T09:42:13;99373.34;;;9.41;81.49
21273;BME280;36726;52.328;10.552;2023-01-13T09:45:02;99371.59;;;9.42;80.39
21273;BME280;36726;52.328;10.552;2023-01-13T09:48:00;99369.81;;;9.44;80.74
21273;BME280;36726;52.328;10.552;2023-01-13T09:50:50;99369.81;;;9.41;81.32
21273;BME280;36726;52.328;10.552;2023-01-13T09:53:26;99372.47;;;9.36;79.70
21273;BME280;36726;52.328;10.552;2023-01-13T09:55:54;99382.16;;;9.27;78.68
21273;BME280;36726;52.328;10.552;2023-01-13T09:58:21;99359.28;;;9.20;76.78
21273;BME280;36726;52.328;10.552;2023-01-13T10:01:01;99372.50;;;9.26;75.13
21273;BME280;36726;52.328;10.552;2023-01-13T10:03:32;99369.81;;;9.38;75.30
21273;BME280;36726;52.328;10.552;2023-01-13T10:06:07;99366.28;;;9.47;71.57
21273;BME280;36726;52.328;10.552;2023-01-13T10:08:39;99358.34;;;9.62;71.70
21273;BME280;36726;52.328;10.552;2023-01-13T10:11:17;99361.84;;;9.71;71.89
21273;BME280;36726;52.328;10.552;2023-01-13T10:14:26;99360.06;;;9.70;71.25
21273;BME280;36726;52.328;10.552;2023-01-13T10:17:14;99364.44;;;9.76;70.66
21273;BME280;36726;52.328;10.552;2023-01-13T10:23:06;99373.25;;;9.79;68.59
21273;BME280;36726;52.328;10.552;2023-01-13T10:25:56;99370.59;;;9.79;67.96
21273;BME280;36726;52.328;10.552;2023-01-13T10:28:28;99374.97;;;9.80;67.49
21273;BME280;36726;52.328;10.552;2023-01-13T10:30:54;99369.72;;;9.79;66.37
21273;BME280;36726;52.328;10.552;2023-01-13T10:33:24;99354.75;;;9.81;66.35
21273;BME280;36726;52.328;10.552;2023-01-13T10:36:03;99360.03;;;9.84;66.67
21273;BME280;36726;52.328;10.552;2023-01-13T10:38:48;99360.94;;;9.78;66.48
21273;BME280;36726;52.328;10.552;2023-01-13T10:43:43;99360.03;;;9.84;64.74
21273;BME280;36726;52.328;10.552;2023-01-13T10:46:12;99357.38;;;9.88;66.49
21273;BME280;36726;52.328;10.552;2023-01-13T10:48:43;99353.84;;;9.91;65.69
21273;BME280;36726;52.328;10.552;2023-01-13T10:54:02;99357.38;;;9.93;66.69
21273;BME280;36726;52.328;10.552;2023-01-13T10:56:41;99361.78;;;9.91;66.21
21273;BME280;36726;52.328;10.552;2023-01-13T10:59:26;99370.59;;;9.84;65.61
21273;BME280;36726;52.328;10.552;2023-01-13T11:07:39;99375.84;;;9.87;65.44
21273;BME280;36726;52.328;10.552;2023-01-13T11:13:03;99382.91;;;9.86;65.48
21273;BME280;36726;52.328;10.552;2023-01-13T11:15:42;99390.78;;;9.89;66.36
21273;BME280;36726;52.328;10.552;2023-01-13T11:18:22;99388.16;;;9.92;65.45
21273;BME280;36726;52.328;10.552;2023-01-13T11:20:51;99377.56;;;9.95;66.21
21273;BME280;36726;52.328;10.552;2023-01-13T11:25:52;99388.13;;;9.97;64.95
21273;BME280;36726;52.328;10.552;2023-01-13T11:31:10;99392.50;;;10.02;64.60
21273;BME280;36726;52.328;10.552;2023-01-13T11:33:47;99392.53;;;10.05;63.71
21273;BME280;36726;52.328;10.552;2023-01-13T11:36:20;99382.81;;;10.06;62.88
21273;BME280;36726;52.328;10.552;2023-01-13T11:38:53;99387.25;;;10.01;61.67
21273;BME280;36726;52.328;10.552;2023-01-13T11:41:40;99386.38;;;9.99;61.01
21273;BME280;36726;52.328;10.552;2023-01-13T11:44:23;99409.25;;;9.97;62.42
21273;BME280;36726;52.328;10.552;2023-01-13T11:46:51;99400.47;;;9.95;63.53
21273;BME280;36726;52.328;10.552;2023-01-13T11:49:24;99393.47;;;9.91;64.01
21273;BME280;36726;52.328;10.552;2023-01-13T11:51:59;99411.06;;;9.86;62.62
21273;BME280;36726;52.328;10.552;2023-01-13T11:54:38;99392.59;;;9.81;63.19
21273;BME280;36726;52.328;10.552;2023-01-13T12:08:14;99397.81;;;9.95;64.21
21273;BME280;36726;52.328;10.552;2023-01-13T12:10:52;99400.47;;;9.95;63.35
21273;BME280;36726;52.328;10.552;2023-01-13T12:13:26;99394.31;;;10.02;64.41
21273;BME280;36726;52.328;10.552;2023-01-13T12:21:57;99394.28;;;10.14;63.87
21273;BME280;36726;52.328;10.552;2023-01-13T12:24:36;99375.75;;;10.17;63.57
21273;BME280;36726;52.328;10.552;2023-01-13T12:27:12;99393.38;;;10.21;63.84
21273;BME280;36726;52.328;10.552;2023-01-13T12:29:42;99377.53;;;10.18;63.91
21273;BME280;36726;52.328;10.552;2023-01-13T12:32:18;99392.47;;;10.25;63.19
21273;BME280;36726;52.328;10.552;2023-01-13T12:37:37;99374.81;;;10.25;64.46
21273;BME280;36726;52.328;10.552;2023-01-13T12:40:24;99378.41;;;10.21;64.18
21273;BME280;36726;52.328;10.552;2023-01-13T12:42:59;99368.72;;;10.19;65.25
21273;BME280;36726;52.328;10.552;2023-01-13T12:45:47;99374.00;;;10.16;64.34
21273;BME280;36726;52.328;10.552;2023-01-13T12:49:19;99380.16;;;10.21;64.89
21273;BME280;36726;52.328;10.552;2023-01-13T12:53:59;99384.56;;;10.19;64.62
21273;BME280;36726;52.328;10.552;2023-01-13T12:56:44;99369.59;;;10.21;64.15
21273;BME280;36726;52.328;10.552;2023-01-13T13:01:46;99354.63;;;10.08;64.12
21273;BME280;36726;52.328;10.552;2023-01-13T13:04:51;99359.97;;;10.11;64.16
21273;BME280;36726;52.328;10.552;2023-01-13T13:07:30;99372.25;;;10.15;64.17
21273;BME280;36726;52.328;10.552;2023-01-13T13:10:01;99380.13;;;10.22;64.59
21273;BME280;36726;52.328;10.552;2023-01-13T13:15:21;99381.91;;;10.25;63.09
21273;BME280;36726;52.328;10.552;2023-01-13T13:23:27;99387.25;;;10.14;64.38
21273;BME280;36726;52.328;10.552;2023-01-13T13:26:01;99392.50;;;10.13;63.69
21273;BME280;36726;52.328;10.552;2023-01-13T13:28:35;99381.94;;;10.11;64.12
21273;BME280;36726;52.328;10.552;2023-01-13T13:31:29;99393.38;;;10.16;64.90
21273;BME280;36726;52.328;10.552;2023-01-13T13:34:08;99392.47;;;10.20;64.80
21273;BME280;36726;52.328;10.552;2023-01-13T13:36:56;99402.19;;;10.17;64.83
21273;BME280;36726;52.328;10.552;2023-01-13T13:39:30;99407.50;;;10.03;65.35
21273;BME280;36726;52.328;10.552;2023-01-13T13:42:24;99404.00;;;10.00;66.23
21273;BME280;36726;52.328;10.552;2023-01-13T13:45:18;99396.09;;;9.91;66.16
21273;BME280;36726;52.328;10.552;2023-01-13T13:50:55;99407.56;;;9.84;67.25
21273;BME280;36726;52.328;10.552;2023-01-13T13:53:32;99394.38;;;9.78;68.75
21273;BME280;36726;52.328;10.552;2023-01-13T13:56:02;99406.69;;;9.77;69.79
21273;BME280;36726;52.328;10.552;2023-01-13T13:58:32;99404.09;;;9.71;70.21
21273;BME280;36726;52.328;10.552;2023-01-13T14:01:05;99411.13;;;9.71;70.31
21273;BME280;36726;52.328;10.552;2023-01-13T14:03:35;99409.38;;;9.71;70.33
21273;BME280;36726;52.328;10.552;2023-01-13T14:06:06;99416.41;;;9.65;70.83
21273;BME280;36726;52.328;10.552;2023-01-13T14:08:35;99413.75;;;9.63;71.65
21273;BME280;36726;52.328;10.552;2023-01-13T14:11:32;99422.56;;;9.61;71.28
21273;BME280;36726;52.328;10.552;2023-01-13T14:14:12;99449.88;;;9.57;71.90
21273;BME280;36726;52.328;10.552;2023-01-13T14:16:39;99440.19;;;9.51;73.23
21273;BME280;36726;52.328;10.552;2023-01-13T14:19:21;99449.84;;;9.44;73.76
21273;BME280;36726;52.328;10.552;2023-01-13T14:21:50;99464.81;;;9.39;76.04
21273;BME280;36726;52.328;10.552;2023-01-13T14:24:17;99459.53;;;9.30;77.40
21273;BME280;36726;52.328;10.552;2023-01-13T14:26:46;99463.94;;;9.19;78.41
21273;BME280;36726;52.328;10.552;2023-01-13T14:29:23;99478.88;;;9.05;79.35
21273;BME280;36726;52.328;10.552;2023-01-13T14:31:52;99488.53;;;9.00;81.11
21273;BME280;36726;52.328;10.552;2023-01-13T14:34:20;99478.84;;;8.92;84.01
21273;BME280;36726;52.328;10.552;2023-01-13T14:36:58;99490.25;;;8.80;85.23
21273;BME280;36726;52.328;10.552;2023-01-13T14:39:35;99499.88;;;8.66;86.89
21273;BME280;36726;52.328;10.552;2023-01-13T14:42:11;99488.41;;;8.58;88.38
21273;BME280;36726;52.328;10.552;2023-01-13T14:44:43;99497.19;;;8.51;89.30
21273;BME280;36726;52.328;10.552;2023-01-13T14:49:53;99503.34;;;8.50;88.75
21273;BME280;36726;52.328;10.552;2023-01-13T14:52:26;99508.59;;;8.53;89.13
21273;BME280;36726;52.328;10.552;2023-01-13T14:57:37;99508.59;;;8.50;88.31
21273;BME280;36726;52.328;10.552;2023-01-13T15:02:41;99510.34;;;8.53;87.19
21273;BME280;36726;52.328;10.552;2023-01-13T15:05:27;99514.75;;;8.52;87.29
21273;BME280;36726;52.328;10.552;2023-01-13T15:07:56;99509.50;;;8.55;87.39
21273;BME280;36726;52.328;10.552;2023-01-13T15:11:00;99520.03;;;8.55;87.28